Terminal Aerodrome Forecast
Issued by NWS

Current Version | Previous Version | Text Only | Print | Product List | Glossary On
Versions: 1 2 3 4 5 6 7 8 9 10 11 12 13 14 15 16 17 18 19 20 21 22
107
FTUS44 KLZK 222106 AAB
TAFHOT
TAF AMD
KHOT 222106Z 2221/2318 31008G15KT P6SM VCSH OVC025
      TEMPO 2221/2223 -SHRA
     FM222300 32012G20KT P6SM VCSH SCT020 OVC060
      TEMPO 2223/2303 -SHRA
     FM230300 32012G22KT P6SM OVC060
     FM230600 32015G25KT P6SM SCT060 OVC100
      TEMPO 2310/2314 4SM BR OVC012
     FM231500 33012G20KT P6SM SCT100 BKN250=

USA.gov is the U.S. government's official web portal to all federal, state and local government web resources and services.